Brant — 5BBK2 — position and weather

sailwx.info

Track history (hours):
 
Tides and Currents Weather Stations Pressure Air Temp Water Temp Dewpoint Dewpoint Depression Visibility Wind Speed Wind Dir Waves Ship Positions

Brant

Last reported at 2015-Jan-27 08:33 UTC. Time now 2015-Jan-28 16:19 UTC.
Position N 36°19' W 009°32'.

Length 185 m; draft 9.3 m.

Type: Cargo ship. MMSI: 212372000.

Date/timePositionNaut miles runAvg speedWind from/ knotsBaromVisibWave heightAir tempDewpointWater temp
2015-Jan-27 08:33N 36°19' W 009°32'3911.9
2015-Jan-27 05:19N 36°56' W 009°43'3312.0
2015-Jan-27 02:31N 37°29' W 009°52'1212.2
2015-Jan-27 01:33N 37°41' W 009°55'2512.1
2015-Jan-26 23:27N 38°05' W 010°02'1112.4
2015-Jan-26 22:32N 38°16' W 010°05'1212.4
2015-Jan-26 21:33N 38°28' W 010°09'1512.6
2015-Jan-26 20:23N 38°43' W 010°12'1112.4
2015-Jan-26 19:30N 38°54' W 010°12'1511.9
2015-Jan-26 18:17N 39°08' W 010°12'2112.4
2015-Jan-26 16:33N 39°30' W 010°12'1412.7
2015-Jan-26 15:26N 39°44' W 010°12'  
2015-Jan-23 16:25N 50°30' E 000°00'1113.3
2015-Jan-23 15:33N 50°33' E 000°18'1212.4
2015-Jan-23 14:33N 50°37' E 000°36'1111.2
2015-Jan-23 13:33N 50°43' E 000°50'1110.3
2015-Jan-23 12:29N 50°50' E 001°04'1010.6
2015-Jan-23 11:34N 50°57' E 001°15'1212.1
2015-Jan-23 10:33N 51°05' E 001°29'1414.1
2015-Jan-23 09:34N 51°14' E 001°46'1414.3
2015-Jan-23 08:34N 51°27' E 001°58'1312.8
2015-Jan-23 07:33N 51°37' E 002°11'1611.7
2015-Jan-23 06:10N 51°49' E 002°28'1010.4
2015-Jan-23 05:10N 51°59' E 002°34'21211.9
2015-Jan-22 11:24N 55°03' E 005°30'1012.0
2015-Jan-22 10:32N 55°11' E 005°40'23011.5
2015-Jan-21 14:33N 57°48' E 010°46'9 7.6
2015-Jan-21 13:19N 57°39' E 010°41'811.1
2015-Jan-21 12:33N 57°36' E 010°56'1212.3
2015-Jan-21 11:34N 57°36' E 011°18'1211.9
2015-Jan-21 10:33N 57°35' E 011°41'0 0.2
2015-Jan-21 09:32N 57°35' E 011°40'0 0.0
2015-Jan-21 08:32N 57°35' E 011°40'0 0.0
2015-Jan-21 07:32N 57°35' E 011°40'2 2.4
2015-Jan-21 06:33N 57°34' E 011°38'1111.0
2015-Jan-21 05:33N 57°23' E 011°30'1211.9
2015-Jan-21 04:34N 57°12' E 011°37'1212.0
2015-Jan-21 03:33N 57°01' E 011°44'1212.1
2015-Jan-21 02:33N 56°49' E 011°52'1010.5
2015-Jan-21 01:33N 56°39' E 011°48'123 9.5
2015-Jan-20 12:33N 54°39' E 011°03'1313.0
2015-Jan-20 11:34N 54°33' E 011°23'1312.9
2015-Jan-20 10:33N 54°27' E 011°43'1312.7
2015-Jan-20 09:34N 54°26' E 012°05'1110.9
2015-Jan-20 08:33N 54°35' E 012°15'1212.2
2015-Jan-20 07:33N 54°43' E 012°31'1212.2
2015-Jan-20 06:34N 54°49' E 012°50'1412.6
2015-Jan-20 05:29N 54°53' E 013°12'1112.3
2015-Jan-20 04:33N 54°57' E 013°31'1212.0
2015-Jan-20 03:33N 55°01' E 013°50'1111.0
2015-Jan-20 02:33N 55°06' E 014°08'1211.7
2015-Jan-20 01:33N 55°15' E 014°20'1212.2
2015-Jan-20 00:33N 55°25' E 014°34'1211.9
2015-Jan-19 23:34N 55°31' E 014°51'1211.5
2015-Jan-19 22:33N 55°37' E 015°09'36411.4
2015-Jan-18 14:32N 59°40' E 023°36'2211.2
2015-Jan-18 12:32N 59°46' E 024°18'1111.2
2015-Jan-18 11:33N 59°49' E 024°40'5611.2
2015-Jan-18 06:32N 60°01' E 026°29'1110.7
2015-Jan-18 05:34N 60°00' E 026°50'100 9.9
2015-Jan-17 19:28N 59°53' E 030°10'1 1.5
2015-Jan-17 18:32N 59°53' E 030°12'0 0.0
2015-Jan-17 17:31N 59°53' E 030°12'0 0.0
2015-Jan-17 16:31N 59°53' E 030°12'0 0.0
2015-Jan-17 15:31N 59°53' E 030°12'0 0.0
2015-Jan-17 14:31N 59°53' E 030°12'0 0.0
2015-Jan-17 13:31N 59°53' E 030°12'0 0.0
2015-Jan-17 12:22N 59°53' E 030°12'0 0.0
2015-Jan-17 11:28N 59°53' E 030°12'0 0.0
2015-Jan-17 09:10N 59°53' E 030°12'  
Track history (hours):
 
Tides and Currents Weather Stations Pressure Air Temp Water Temp Dewpoint Dewpoint Depression Visibility Wind Speed Wind Dir Waves Ship Positions

Brant

Last reported at 2015-Jan-27 08:33 UTC. Time now 2015-Jan-28 16:19 UTC.
Position N 36°19' W 009°32'.

Length 185 m; draft 9.3 m.

Type: Cargo ship. MMSI: 212372000.

Date/timePositionNaut miles runAvg speedWind from/ knotsBaromVisibWave heightAir tempDewpointWater temp
2015-Jan-27 08:33N 36°19' W 009°32'3911.9
2015-Jan-27 05:19N 36°56' W 009°43'3312.0
2015-Jan-27 02:31N 37°29' W 009°52'1212.2
2015-Jan-27 01:33N 37°41' W 009°55'2512.1
2015-Jan-26 23:27N 38°05' W 010°02'1112.4
2015-Jan-26 22:32N 38°16' W 010°05'1212.4
2015-Jan-26 21:33N 38°28' W 010°09'1512.6
2015-Jan-26 20:23N 38°43' W 010°12'1112.4
2015-Jan-26 19:30N 38°54' W 010°12'1511.9
2015-Jan-26 18:17N 39°08' W 010°12'2112.4
2015-Jan-26 16:33N 39°30' W 010°12'1412.7
2015-Jan-26 15:26N 39°44' W 010°12'  
2015-Jan-23 16:25N 50°30' E 000°00'1113.3
2015-Jan-23 15:33N 50°33' E 000°18'1212.4
2015-Jan-23 14:33N 50°37' E 000°36'1111.2
2015-Jan-23 13:33N 50°43' E 000°50'1110.3
2015-Jan-23 12:29N 50°50' E 001°04'1010.6
2015-Jan-23 11:34N 50°57' E 001°15'1212.1
2015-Jan-23 10:33N 51°05' E 001°29'1414.1
2015-Jan-23 09:34N 51°14' E 001°46'1414.3
2015-Jan-23 08:34N 51°27' E 001°58'1312.8
2015-Jan-23 07:33N 51°37' E 002°11'1611.7
2015-Jan-23 06:10N 51°49' E 002°28'1010.4
2015-Jan-23 05:10N 51°59' E 002°34'21211.9
2015-Jan-22 11:24N 55°03' E 005°30'1012.0
2015-Jan-22 10:32N 55°11' E 005°40'23011.5
2015-Jan-21 14:33N 57°48' E 010°46'9 7.6
2015-Jan-21 13:19N 57°39' E 010°41'811.1
2015-Jan-21 12:33N 57°36' E 010°56'1212.3
2015-Jan-21 11:34N 57°36' E 011°18'1211.9
2015-Jan-21 10:33N 57°35' E 011°41'0 0.2
2015-Jan-21 09:32N 57°35' E 011°40'0 0.0
2015-Jan-21 08:32N 57°35' E 011°40'0 0.0
2015-Jan-21 07:32N 57°35' E 011°40'2 2.4
2015-Jan-21 06:33N 57°34' E 011°38'1111.0
2015-Jan-21 05:33N 57°23' E 011°30'1211.9
2015-Jan-21 04:34N 57°12' E 011°37'1212.0
2015-Jan-21 03:33N 57°01' E 011°44'1212.1
2015-Jan-21 02:33N 56°49' E 011°52'1010.5
2015-Jan-21 01:33N 56°39' E 011°48'123 9.5
2015-Jan-20 12:33N 54°39' E 011°03'1313.0
2015-Jan-20 11:34N 54°33' E 011°23'1312.9
2015-Jan-20 10:33N 54°27' E 011°43'1312.7
2015-Jan-20 09:34N 54°26' E 012°05'1110.9
2015-Jan-20 08:33N 54°35' E 012°15'1212.2
2015-Jan-20 07:33N 54°43' E 012°31'1212.2
2015-Jan-20 06:34N 54°49' E 012°50'1412.6
2015-Jan-20 05:29N 54°53' E 013°12'1112.3
2015-Jan-20 04:33N 54°57' E 013°31'1212.0
2015-Jan-20 03:33N 55°01' E 013°50'1111.0
2015-Jan-20 02:33N 55°06' E 014°08'1211.7
2015-Jan-20 01:33N 55°15' E 014°20'1212.2
2015-Jan-20 00:33N 55°25' E 014°34'1211.9
2015-Jan-19 23:34N 55°31' E 014°51'1211.5
2015-Jan-19 22:33N 55°37' E 015°09'36411.4
2015-Jan-18 14:32N 59°40' E 023°36'2211.2
2015-Jan-18 12:32N 59°46' E 024°18'1111.2
2015-Jan-18 11:33N 59°49' E 024°40'5611.2
2015-Jan-18 06:32N 60°01' E 026°29'1110.7
2015-Jan-18 05:34N 60°00' E 026°50'100 9.9
2015-Jan-17 19:28N 59°53' E 030°10'1 1.5
2015-Jan-17 18:32N 59°53' E 030°12'0 0.0
2015-Jan-17 17:31N 59°53' E 030°12'0 0.0
2015-Jan-17 16:31N 59°53' E 030°12'0 0.0
2015-Jan-17 15:31N 59°53' E 030°12'0 0.0
2015-Jan-17 14:31N 59°53' E 030°12'0 0.0
2015-Jan-17 13:31N 59°53' E 030°12'0 0.0
2015-Jan-17 12:22N 59°53' E 030°12'0 0.0
2015-Jan-17 11:28N 59°53' E 030°12'0 0.0
2015-Jan-17 09:10N 59°53' E 030°12'  

Dump ship's entire track history